Time;durP1;ratioP1;P1;durP2;ratioP2;P2;SDS_P1;SDS_P2;PMS_P1;PMS_P2;Temp;Humidity;BMP_temperature;BMP_pressure;BME280_temperature;BME280_humidity;BME280_pressure;Samples;Min_cycle;Max_cycle;Signal;HPM_P1;HPM_P2
2023/02/20 00:00:27;;;;;;;;;9.50;7.25;;;;;21.59;42.38;102857.31;5037261;28;47010;-74
2023/02/20 00:02:53;;;;;;;;;7.00;7.00;;;;;21.58;42.82;102860.06;5017423;28;45324;-74
2023/02/20 00:05:19;;;;;;;;;11.00;10.00;;;;;21.57;42.12;102853.09;5017411;28;45331;-74
2023/02/20 00:07:44;;;;;;;;;11.75;8.50;;;;;21.57;42.52;102845.97;5017256;28;45296;-74
2023/02/20 00:10:11;;;;;;;;;9.50;8.50;;;;;21.58;42.38;102862.72;5017294;28;47067;-74
2023/02/20 00:12:36;;;;;;;;;11.00;9.75;;;;;21.56;42.55;102854.91;5017308;28;45294;-73
2023/02/20 00:15:03;;;;;;;;;10.00;8.00;;;;;21.57;42.61;102853.91;5016845;28;45375;-74
2023/02/20 00:17:28;;;;;;;;;9.75;9.75;;;;;21.57;42.45;102855.75;5017272;28;45291;-74
2023/02/20 00:19:54;;;;;;;;;11.50;9.25;;;;;21.47;42.44;102837.97;5017064;28;45331;-74
2023/02/20 00:22:24;;;;;;;;;9.25;8.00;;;;;21.58;42.33;102860.06;5017018;28;45350;-74
2023/02/20 00:24:50;;;;;;;;;9.50;9.50;;;;;21.56;42.50;102848.75;5017289;28;45442;-74
2023/02/20 00:27:15;;;;;;;;;9.50;8.50;;;;;21.56;42.39;102854.06;5017030;28;45456;-73
2023/02/20 00:29:43;;;;;;;;;11.00;9.00;;;;;21.48;42.06;102847.59;5016832;28;46132;-74
2023/02/20 00:32:09;;;;;;;;;10.00;9.25;;;;;21.45;42.37;102841.69;5036930;28;45413;-74
2023/02/20 00:34:34;;;;;;;;;10.25;9.75;;;;;21.56;41.80;102860.19;5036599;28;45333;-74
2023/02/20 00:36:59;;;;;;;;;10.00;9.00;;;;;21.57;41.85;102853.09;5036849;28;45311;-74
2023/02/20 00:39:25;;;;;;;;;9.00;8.00;;;;;21.55;41.88;102858.50;5036721;28;45441;-74
2023/02/20 00:41:50;;;;;;;;;8.75;8.00;;;;;21.56;41.89;102862.00;5035225;28;45305;-74
2023/02/20 00:44:15;;;;;;;;;11.25;9.75;;;;;21.54;41.88;102851.56;5036513;28;45245;-74
2023/02/20 00:46:41;;;;;;;;;10.00;10.00;;;;;21.55;41.83;102858.50;5036796;28;45386;-74
2023/02/20 00:49:06;;;;;;;;;8.00;8.00;;;;;21.57;41.81;102850.44;5036549;28;45993;-74
2023/02/20 00:51:33;;;;;;;;;10.00;9.00;;;;;21.47;41.68;102837.09;5036573;28;45387;-74
2023/02/20 00:53:59;;;;;;;;;9.00;9.00;;;;;21.55;41.61;102839.13;5036739;28;45291;-74
2023/02/20 00:56:24;;;;;;;;;10.00;8.75;;;;;21.57;41.74;102847.81;5036446;28;45292;-74
2023/02/20 00:58:50;;;;;;;;;12.00;11.00;;;;;21.51;42.10;102836.75;5035904;28;47086;-74
2023/02/20 01:01:15;;;;;;;;;12.75;10.00;;;;;21.55;42.10;102839.97;5036143;28;45482;-74
2023/02/20 01:03:42;;;;;;;;;12.75;11.00;;;;;21.56;41.81;102840.81;5036488;28;45388;-74
2023/02/20 01:06:07;;;;;;;;;12.50;10.00;;;;;21.55;42.23;102833.81;5036381;28;45260;-74
2023/02/20 01:08:32;;;;;;;;;10.00;10.00;;;;;21.55;41.63;102832.03;5036092;28;46291;-74
2023/02/20 01:10:58;;;;;;;;;8.75;8.00;;;;;21.55;41.74;102833.81;5036242;28;45288;-73
2023/02/20 01:13:24;;;;;;;;;11.00;11.00;;;;;21.55;42.21;102828.53;5035978;28;45366;-74
2023/02/20 01:15:49;;;;;;;;;13.00;10.00;;;;;21.55;41.62;102836.47;5036360;28;45394;-73
2023/02/20 01:18:15;;;;;;;;;8.75;7.25;;;;;21.54;41.88;102843.59;5035916;28;46207;-74
2023/02/20 01:20:40;;;;;;;;;11.00;10.25;;;;;21.55;41.77;102847.06;5036182;28;45290;-73
2023/02/20 01:23:05;;;;;;;;;10.25;8.50;;;;;21.53;41.61;102852.50;5036258;28;45258;-74
2023/02/20 01:25:31;;;;;;;;;9.25;8.00;;;;;21.54;41.51;102842.75;5036060;28;45240;-74
2023/02/20 01:27:57;;;;;;;;;10.50;9.00;;;;;21.53;42.00;102847.22;5035621;28;46843;-74
2023/02/20 01:30:22;;;;;;;;;10.75;10.50;;;;;21.53;41.61;102849.84;5014533;28;45568;-73
2023/02/20 01:32:47;;;;;;;;;11.50;10.00;;;;;21.54;41.71;102842.75;5016190;28;45391;-74
2023/02/20 01:35:14;;;;;;;;;13.00;12.25;;;;;21.54;42.07;102842.75;4998164;28;45383;-74
2023/02/20 01:37:39;;;;;;;;;10.50;9.00;;;;;21.54;41.55;102838.31;5015697;28;46393;-74
2023/02/20 01:40:06;;;;;;;;;9.75;8.75;;;;;21.54;42.04;102833.00;5016050;28;45408;-73
2023/02/20 01:42:33;;;;;;;;;10.00;10.00;;;;;21.56;42.11;102827.56;5014382;28;45503;-74
2023/02/20 01:45:20;;;;;;;;;9.75;9.00;;;;;21.56;41.58;102824.91;5015776;28;45469;-74
2023/02/20 01:47:46;;;;;;;;;11.75;10.75;;;;;21.57;41.41;102822.13;5015603;28;47031;-74
2023/02/20 01:50:13;;;;;;;;;8.25;6.25;;;;;21.57;41.93;102827.44;5015785;28;45414;-73
2023/02/20 01:52:40;;;;;;;;;10.75;9.00;;;;;21.54;41.39;102825.06;5014825;28;45231;-74
2023/02/20 01:55:16;;;;;;;;;13.00;10.00;;;;;21.58;41.82;102821.16;5015614;28;45326;-74
2023/02/20 01:57:49;;;;;;;;;11.50;11.00;;;;;21.58;41.45;102818.53;5015120;28;47375;-73
2023/02/20 02:00:18;;;;;;;;;8.50;8.00;;;;;21.55;41.36;102813.47;5015608;28;45302;-74
2023/02/20 02:02:58;;;;;;;;;10.75;10.75;;;;;21.59;41.80;102816.72;5035075;28;45310;-73
2023/02/20 02:05:24;;;;;;;;;12.75;10.75;;;;;21.60;41.72;102821.03;5035651;28;45453;-74
2023/02/20 02:07:50;;;;;;;;;9.50;9.50;;;;;21.59;41.43;102816.72;5035277;28;46471;-73
2023/02/20 02:10:23;;;;;;;;;10.50;8.25;;;;;21.48;41.59;102801.72;5035260;28;45386;-73
2023/02/20 02:12:51;;;;;;;;;10.75;8.50;;;;;21.60;41.49;102813.09;5035337;28;45466;-74
2023/02/20 02:15:20;;;;;;;;;9.50;8.50;;;;;21.59;41.65;102804.31;5035431;28;45440;-73
2023/02/20 02:18:30;;;;;;;;;12.25;8.50;;;;;21.60;41.27;102802.50;5035158;28;46070;-73
2023/02/20 02:21:30;;;;;;;;;11.25;11.25;;;;;21.60;41.33;102797.19;4973652;28;45388;-75
2023/02/20 02:23:55;;;;;;;;;6.75;6.75;;;;;21.60;41.34;102787.44;4973748;28;45357;-73
2023/02/20 02:26:42;;;;;;;;;11.50;8.00;;;;;21.59;41.41;102791.09;4973001;28;45521;-74
2023/02/20 02:29:44;;;;;;;;;7.00;7.00;;;;;21.59;41.56;102790.22;4973645;28;46253;-74
2023/02/20 02:32:18;;;;;;;;;9.00;8.25;;;;;21.59;41.36;102788.44;4954126;28;45397;-73
2023/02/20 02:35:08;;;;;;;;;9.00;7.50;;;;;21.58;41.27;102792.03;4953922;28;45370;-73
2023/02/20 02:37:40;;;;;;;;;9.25;6.50;;;;;21.58;41.73;102785.91;4954122;28;45356;-73
2023/02/20 02:40:11;;;;;;;;;8.00;8.00;;;;;21.57;41.74;102786.88;4953638;28;46273;-74
2023/02/20 02:43:08;;;;;;;;;7.25;7.25;;;;;21.57;41.71;102778.94;4953874;28;45342;-73
2023/02/20 02:45:45;;;;;;;;;8.00;6.25;;;;;21.55;41.65;102778.19;4915389;28;45381;-74
2023/02/20 02:48:30;;;;;;;;;8.25;8.00;;;;;21.48;41.86;102768.13;4915667;28;45468;-73
2023/02/20 02:51:01;;;;;;;;;6.25;6.25;;;;;21.54;41.71;102784.47;4915265;28;46368;-73
2023/02/20 02:53:26;;;;;;;;;8.00;7.67;;;;;21.56;41.65;102777.25;4915305;28;45406;-74
2023/02/20 02:55:51;;;;;;;;;9.33;7.00;;;;;21.49;41.31;102767.16;4948990;28;45547;-74
2023/02/20 02:58:18;;;;;;;;;6.50;6.25;;;;;21.56;41.62;102771.94;4953832;28;45345;-74
2023/02/20 03:00:54;;;;;;;;;7.00;6.00;;;;;21.56;41.23;102769.31;4956613;28;45551;-74
2023/02/20 03:03:39;;;;;;;;;7.25;6.25;;;;;21.57;41.59;102765.69;4973098;28;45329;-74
2023/02/20 03:06:13;;;;;;;;;8.25;7.00;;;;;21.46;41.66;102748.06;4976750;28;45432;-73
2023/02/20 03:08:46;;;;;;;;;7.00;6.75;;;;;21.52;41.50;102761.59;4975493;28;45397;-73
2023/02/20 03:11:13;;;;;;;;;7.25;5.25;;;;;21.58;41.14;102762.06;4976064;28;46357;-73
2023/02/20 03:16:36;;;;;;;;;6.25;6.25;;;;;21.56;41.30;102751.59;4976544;28;45487;-74
2023/02/20 03:19:06;;;;;;;;;6.50;6.50;;;;;21.56;41.04;102743.66;4976566;28;45302;-73
2023/02/20 03:21:34;;;;;;;;;7.50;7.00;;;;;21.56;40.95;102738.34;4990277;28;45414;-74
2023/02/20 03:24:03;;;;;;;;;8.00;7.75;;;;;21.47;41.34;102725.88;5017612;28;45285;-74
2023/02/20 03:26:34;;;;;;;;;7.75;6.00;;;;;21.46;41.45;102725.06;5018130;28;45366;-74
2023/02/20 03:29:12;;;;;;;;;4.75;3.25;;;;;21.46;41.26;102725.06;5018031;28;45432;-73
2023/02/20 03:31:47;;;;;;;;;11.00;7.00;;;;;21.53;41.38;102733.31;5033911;28;47096;-73
2023/02/20 03:45:43;;;;;;;;;5.50;5.50;;;;;21.50;40.86;102715.03;5037824;28;45279;-73
2023/02/20 03:48:26;;;;;;;;;9.00;7.00;;;;;21.38;40.94;102695.75;5037766;28;45396;-73
2023/02/20 03:50:52;;;;;;;;;6.25;6.25;;;;;21.47;41.35;102702.03;5036991;28;45307;-73
2023/02/20 03:53:18;;;;;;;;;9.00;7.25;;;;;21.49;40.84;102710.72;5037077;28;46398;-73
2023/02/20 03:55:46;;;;;;;;;6.50;6.00;;;;;21.48;41.21;102712.53;5037454;28;45399;-74
2023/02/20 03:58:14;;;;;;;;;9.75;7.00;;;;;21.38;41.18;102693.94;5037761;28;45419;-73
2023/02/20 04:00:44;;;;;;;;;8.00;6.75;;;;;21.47;41.01;102692.28;5037390;28;45409;-73
2023/02/20 04:03:15;;;;;;;;;6.75;6.00;;;;;21.47;40.89;102697.59;5037260;28;47129;-73
2023/02/20 04:05:45;;;;;;;;;7.00;5.00;;;;;21.35;40.87;102674.81;5037337;28;45275;-74
2023/02/20 04:08:17;;;;;;;;;9.00;7.00;;;;;21.46;40.94;102693.28;5019172;28;45656;-73
2023/02/20 04:11:11;;;;;;;;;8.00;7.00;;;;;21.46;40.98;102701.22;5037433;28;45434;-73
2023/02/20 04:13:38;;;;;;;;;5.25;5.00;;;;;21.38;40.95;102678.06;5028741;28;45509;-74
2023/02/20 04:16:04;;;;;;;;;4.75;4.75;;;;;21.36;41.12;102677.34;5036301;28;45375;-74
2023/02/20 04:18:31;;;;;;;;;6.25;5.25;;;;;21.39;41.18;102678.91;5037031;28;45291;-73
2023/02/20 04:20:59;;;;;;;;;5.75;5.00;;;;;21.47;40.74;102696.75;5037185;28;45429;-74
2023/02/20 04:23:26;;;;;;;;;5.75;5.75;;;;;21.48;41.15;102701.09;5036594;28;45347;-74
2023/02/20 04:26:08;;;;;;;;;4.75;4.75;;;;;21.48;41.38;102701.09;5036960;28;45299;-74
2023/02/20 04:28:34;;;;;;;;;4.25;4.25;;;;;21.46;41.20;102701.22;5037024;28;45386;-74
2023/02/20 04:30:59;;;;;;;;;7.25;7.00;;;;;21.46;41.06;102703.03;5036782;28;45362;-73
2023/02/20 04:33:25;;;;;;;;;7.00;5.25;;;;;21.46;40.87;102693.28;5036653;28;47138;-74
2023/02/20 04:35:51;;;;;;;;;5.25;5.25;;;;;21.46;41.00;102698.59;5036842;28;45454;-74
2023/02/20 04:38:16;;;;;;;;;4.00;4.00;;;;;21.44;40.63;102695.22;5036260;28;45213;-73
2023/02/20 04:40:41;;;;;;;;;6.50;6.00;;;;;21.45;40.84;102698.69;5036011;28;45514;-74
2023/02/20 04:43:07;;;;;;;;;5.75;4.75;;;;;21.46;40.72;102706.53;5036623;28;45322;-73
2023/02/20 04:45:32;;;;;;;;;6.00;4.75;;;;;21.45;41.14;102699.53;5036224;28;45348;-73
2023/02/20 04:47:58;;;;;;;;;6.25;6.25;;;;;21.44;40.63;102692.59;5036436;28;45232;-74
2023/02/20 04:50:26;;;;;;;;;5.25;4.00;;;;;21.46;40.80;102697.75;5036397;28;45228;-71
2023/02/20 04:52:52;;;;;;;;;4.00;3.75;;;;;21.42;40.72;102697.16;5036654;28;45358;-73
2023/02/20 04:55:19;;;;;;;;;5.75;5.75;;;;;21.44;40.94;102700.53;5036387;28;45292;-73
2023/02/20 04:57:44;;;;;;;;;5.75;4.75;;;;;21.45;40.80;102696.03;5036489;28;45294;-73
2023/02/20 05:00:11;;;;;;;;;5.75;4.00;;;;;21.44;40.73;102705.81;5036112;28;45398;-73
2023/02/20 05:02:37;;;;;;;;;6.25;4.25;;;;;21.44;40.46;102699.69;5036206;28;45292;-73
2023/02/20 05:05:03;;;;;;;;;5.00;5.00;;;;;;;;5035937;28;45347;-73
2023/02/20 05:07:28;;;;;;;;;4.00;3.75;;;;;21.44;40.99;102691.75;5035589;28;45434;-73
2023/02/20 05:09:54;;;;;;;;;5.00;4.75;;;;;21.43;40.80;102682.94;5036533;28;45405;-73
2023/02/20 05:12:19;;;;;;;;;6.25;5.25;;;;;21.43;40.54;102688.25;5036246;28;45390;-73
2023/02/20 05:14:44;;;;;;;;;6.00;6.00;;;;;21.42;40.69;102689.22;5036306;28;45335;-73
2023/02/20 05:17:10;;;;;;;;;4.25;4.25;;;;;21.42;40.43;102698.97;5036222;28;45562;-73
2023/02/20 05:19:36;;;;;;;;;5.25;5.00;;;;;21.42;40.37;102701.63;5036021;28;45363;-73
2023/02/20 05:22:20;;;;;;;;;5.50;4.00;;;;;21.40;40.51;102694.66;5036133;28;46169;-73
2023/02/20 05:24:47;;;;;;;;;3.00;3.00;;;;;21.35;40.50;102683.59;5036059;28;45352;-73
2023/02/20 05:27:13;;;;;;;;;6.75;3.75;;;;;21.39;40.53;102684.19;5035980;28;45479;-73
2023/02/20 05:29:46;;;;;;;;;6.25;5.00;;;;;21.39;40.51;102687.66;5017985;28;45593;-73
2023/02/20 05:32:12;;;;;;;;;3.67;3.67;;;;;21.39;40.27;102689.50;5035821;28;46225;-73
2023/02/20 05:34:37;;;;;;;;;4.00;4.00;;;;;21.38;40.62;102690.44;5035139;28;45440;-74
2023/02/20 05:37:03;;;;;;;;;5.00;3.00;;;;;21.39;40.56;102690.31;5035994;28;45378;-73
2023/02/20 05:39:28;;;;;;;;;5.00;3.50;;;;;21.40;40.67;102681.41;5035934;28;45397;-73
2023/02/20 05:41:54;;;;;;;;;3.33;3.33;;;;;21.38;40.80;102671.91;5035898;28;45387;-73
2023/02/20 05:44:19;;;;;;;;;4.00;4.00;;;;;21.40;40.24;102676.09;5035713;28;45418;-73
2023/02/20 05:46:44;;;;;;;;;5.50;3.25;;;;;21.39;40.67;102674.41;5036055;28;45402;-73
2023/02/20 05:49:11;;;;;;;;;3.50;3.25;;;;;21.39;40.67;102671.78;5035489;28;45432;-73
2023/02/20 05:51:36;;;;;;;;;4.25;4.00;;;;;21.38;40.61;102671.91;5035561;28;47098;-73
2023/02/20 05:54:03;;;;;;;;;1.33;1.00;;;;;21.39;40.40;102670.97;5035617;28;45290;-73
2023/02/20 05:56:29;;;;;;;;;4.00;3.00;;;;;21.39;40.50;102671.78;5035684;28;45358;-73
2023/02/20 05:58:54;;;;;;;;;4.67;4.67;;;;;21.42;40.67;102672.50;5035440;28;45367;-73
2023/02/20 06:01:28;;;;;;;;;5.00;4.00;;;;;21.40;40.71;102670.81;5035165;28;46086;-73
2023/02/20 06:03:53;;;;;;;;;3.50;3.50;;;;;21.42;40.28;102665.38;5035151;28;45411;-73
2023/02/20 06:06:20;;;;;;;;;3.00;3.00;;;;;21.37;40.23;102660.47;5017584;28;45232;-73
2023/02/20 06:08:47;;;;;;;;;4.00;4.00;;;;;21.39;40.15;102657.72;5035607;28;45248;-73
2023/02/20 06:11:12;;;;;;;;;3.00;3.00;;;;;21.40;40.14;102673.47;5035336;28;45345;-73
2023/02/20 06:13:43;;;;;;;;;3.25;3.25;;;;;21.42;40.59;102675.97;5035297;28;45354;-73
2023/02/20 06:16:09;;;;;;;;;3.00;3.00;;;;;21.39;40.02;102668.31;5035760;28;45418;-73
2023/02/20 06:18:42;;;;;;;;;5.00;3.00;;;;;21.39;40.46;102671.78;5034965;28;45359;-74
2023/02/20 06:21:10;;;;;;;;;3.67;3.67;;;;;21.36;40.32;102673.84;5035055;28;46462;-74
2023/02/20 06:23:37;;;;;;;;;3.00;3.00;;;;;21.26;40.37;102649.97;5035149;28;45388;-73
2023/02/20 06:26:04;;;;;;;;;3.33;2.00;;;;;21.38;40.54;102672.75;5035419;28;45366;-72
2023/02/20 06:28:29;;;;;;;;;3.67;3.00;;;;;21.34;40.51;102667.88;5035175;28;45414;-71
2023/02/20 06:30:55;;;;;;;;;5.00;3.00;;;;;21.36;40.64;102685.28;5034976;28;45921;-72
2023/02/20 06:33:20;;;;;;;;;3.33;3.33;;;;;21.38;40.37;102688.66;5031187;28;45352;-72
2023/02/20 06:35:45;;;;;;;;;4.33;3.00;;;;;21.42;40.80;102691.03;5008196;28;45344;-71
2023/02/20 06:38:11;;;;;;;;;3.67;3.67;;;;;21.35;40.49;102673.00;5030769;28;45507;-70
2023/02/20 06:40:38;;;;;;;;;3.00;2.33;;;;;21.43;40.79;102688.25;5035191;28;45977;-72
2023/02/20 06:43:03;;;;;;;;;6.00;3.00;;;;;21.45;40.52;102691.59;5037679;28;45525;-72
2023/02/20 06:45:28;;;;;;;;;4.00;3.00;;;;;21.45;40.94;102694.25;5037999;28;45568;-73
2023/02/20 06:47:54;;;;;;;;;4.67;3.67;;;;;21.42;41.07;102691.84;5038230;28;45292;-73
2023/02/20 06:50:19;;;;;;;;;4.67;3.33;;;;;21.46;41.08;102695.94;5038182;28;50008;-72
2023/02/20 06:52:44;;;;;;;;;3.00;3.00;;;;;21.46;40.85;102695.94;5031596;28;45415;-72
2023/02/20 06:55:10;;;;;;;;;4.00;3.33;;;;;21.46;40.85;102697.75;5018593;28;45557;-72
2023/02/20 06:57:35;;;;;;;;;4.00;4.00;;;;;21.45;40.68;102699.53;5018351;28;45466;-72
2023/02/20 07:00:00;;;;;;;;;4.75;4.00;;;;;21.46;40.97;102708.34;5025790;28;45425;-72
2023/02/20 07:02:26;;;;;;;;;5.00;2.00;;;;;21.46;41.02;102708.34;5035193;28;45825;-79
2023/02/20 07:04:51;;;;;;;;;5.00;4.00;;;;;21.45;40.95;102715.44;5036578;28;45449;-73
2023/02/20 07:07:16;;;;;;;;;6.50;4.00;;;;;21.45;41.04;102718.06;5036605;28;45397;-73
2023/02/20 07:09:42;;;;;;;;;3.00;3.00;;;;;21.46;40.91;102721.56;5036455;28;46335;-74
2023/02/20 07:12:07;;;;;;;;;5.67;4.00;;;;;;;;5036497;28;45478;-76
2023/02/20 07:14:32;;;;;;;;;3.67;3.67;;;;;21.45;40.96;102719.88;5036663;28;45715;-76
2023/02/20 07:16:58;;;;;;;;;4.00;3.00;;;;;21.45;40.56;102725.19;5036073;28;45373;-75
2023/02/20 07:19:23;;;;;;;;;6.25;4.25;;;;;21.44;40.64;102727.00;5036426;28;46009;-79
2023/02/20 07:21:49;;;;;;;;;5.00;5.00;;;;;21.43;40.90;102725.31;5036137;28;45395;-76
2023/02/20 07:24:14;;;;;;;;;3.00;3.00;;;;;21.44;40.68;102732.31;5037179;28;45452;-72
2023/02/20 07:26:40;;;;;;;;;3.00;3.00;;;;;;;;5031565;28;45465;-72
2023/02/20 07:29:06;;;;;;;;;3.00;3.00;;;;;21.44;40.97;102723.53;5022802;28;45513;-71
2023/02/20 07:31:31;;;;;;;;;5.33;4.00;;;;;21.42;41.35;102723.63;5020929;28;45324;-74
2023/02/20 07:33:57;;;;;;;;;4.25;3.25;;;;;21.42;41.22;102722.81;5028632;28;45462;-73
2023/02/20 07:36:22;;;;;;;;;5.00;2.67;;;;;21.34;41.36;102716.34;5037673;28;45379;-73
2023/02/20 07:38:55;;;;;;;;;5.75;3.25;;;;;;;;5037526;28;46006;-73
2023/02/20 07:41:20;;;;;;;;;6.50;5.75;;;;;21.36;41.02;102718.88;5037269;28;45382;-73
2023/02/20 07:43:45;;;;;;;;;4.67;3.33;;;;;21.40;41.41;102729.06;5037554;28;45757;-73
2023/02/20 07:46:11;;;;;;;;;5.67;4.00;;;;;21.42;41.53;102730.75;5037340;28;45445;-73
2023/02/20 07:48:36;;;;;;;;;4.00;4.00;;;;;21.42;41.12;102731.56;5037304;28;47052;-74
2023/02/20 07:51:01;;;;;;;;;3.50;3.50;;;;;21.40;40.98;102728.22;5036270;28;45238;-73
2023/02/20 07:53:27;;;;;;;;;4.75;3.50;;;;;21.32;41.44;102722.72;5037688;28;45502;-73
2023/02/20 07:55:52;;;;;;;;;5.50;2.75;;;;;21.36;41.49;102740.91;5037373;28;45616;-73
2023/02/20 07:58:17;;;;;;;;;4.75;2.25;;;;;21.28;41.51;102717.72;5037167;28;45905;-73
2023/02/20 08:00:43;;;;;;;;;8.00;4.00;;;;;21.39;41.47;102747.75;5035779;28;45320;-72
2023/02/20 08:03:08;;;;;;;;;4.25;4.25;;;;;21.38;41.32;102752.19;5037542;28;45398;-72
2023/02/20 08:05:34;;;;;;;;;4.00;4.00;;;;;21.33;41.36;102751.75;5037426;28;45406;-73
2023/02/20 08:07:59;;;;;;;;;5.00;3.00;;;;;21.38;41.47;102757.50;5037153;28;46331;-72
2023/02/20 08:10:27;;;;;;;;;4.67;4.67;;;;;21.37;41.05;102769.03;5037382;28;45315;-73
2023/02/20 08:12:53;;;;;;;;;4.00;4.00;;;;;21.37;41.41;102768.19;5037342;28;45442;-71
2023/02/20 08:15:20;;;;;;;;;4.33;3.33;;;;;21.38;41.07;102775.19;5036903;28;45399;-74
2023/02/20 08:17:46;;;;;;;;;4.50;4.00;;;;;21.37;41.53;102776.13;5036874;28;46181;-72
2023/02/20 08:20:12;;;;;;;;;3.67;3.67;;;;;21.37;40.96;102778.78;5037043;28;45297;-72
2023/02/20 08:22:37;;;;;;;;;3.00;3.00;;;;;21.36;41.34;102775.31;5037260;28;45418;-74
2023/02/20 08:25:04;;;;;;;;;9.00;5.25;;;;;21.36;41.19;102775.31;5036991;28;45347;-73
2023/02/20 08:27:30;;;;;;;;;5.67;4.67;;;;;21.35;41.23;102767.50;5036788;28;47115;-72
2023/02/20 08:29:56;;;;;;;;;3.00;3.00;;;;;21.35;41.17;102778.06;5036479;28;45247;-72
2023/02/20 08:32:21;;;;;;;;;3.67;3.33;;;;;21.36;40.72;102777.13;5036794;28;45268;-73
2023/02/20 08:34:47;;;;;;;;;4.50;4.50;;;;;21.32;40.80;102773.03;5036759;28;45308;-73
2023/02/20 08:37:12;;;;;;;;;5.00;4.00;;;;;21.36;41.32;102783.25;5036676;28;45324;-73
2023/02/20 08:39:37;;;;;;;;;4.25;4.25;;;;;21.32;40.78;102773.03;5036727;28;45317;-73
2023/02/20 08:42:03;;;;;;;;;4.00;3.75;;;;;21.36;40.71;102775.31;5036866;28;45347;-73
2023/02/20 08:44:28;;;;;;;;;8.50;5.50;;;;;21.36;40.94;102769.19;5036311;28;45395;-73
2023/02/20 08:46:53;;;;;;;;;4.25;4.00;;;;;21.36;41.13;102766.53;5036698;28;45366;-73
2023/02/20 08:49:19;;;;;;;;;4.25;4.25;;;;;21.33;41.18;102761.50;5036684;28;45424;-73
2023/02/20 08:51:46;;;;;;;;;6.00;4.25;;;;;21.36;40.64;102767.38;5036643;28;45470;-73
2023/02/20 08:54:12;;;;;;;;;5.33;4.00;;;;;21.36;40.87;102761.25;5036674;28;45236;-73
2023/02/20 08:56:37;;;;;;;;;4.25;4.25;;;;;21.37;40.93;102760.25;5036251;28;46243;-73
2023/02/20 08:59:03;;;;;;;;;4.00;4.00;;;;;21.33;41.10;102759.69;5036122;28;45384;-73
2023/02/20 09:01:28;;;;;;;;;3.50;3.50;;;;;21.36;40.72;102758.59;5036224;28;45783;-73
2023/02/20 09:03:54;;;;;;;;;5.00;5.00;;;;;21.35;40.96;102749.81;5036218;28;45499;-73
2023/02/20 09:06:19;;;;;;;;;4.50;4.00;;;;;21.36;41.07;102750.66;5036303;28;47224;-73
2023/02/20 09:08:45;;;;;;;;;3.75;3.75;;;;;21.33;40.63;102750.91;5036355;28;45419;-73
2023/02/20 09:11:10;;;;;;;;;3.33;3.33;;;;;21.35;40.67;102748.94;5036597;28;45934;-72
2023/02/20 09:13:46;;;;;;;;;5.00;4.00;;;;;21.36;41.02;102751.50;5035813;28;45491;-73
2023/02/20 09:16:14;;;;;;;;;3.67;3.67;;;;;21.35;41.17;102743.66;5036217;28;46649;-73
2023/02/20 09:18:39;;;;;;;;;5.00;3.50;;;;;21.27;41.16;102733.72;5035981;28;45400;-72
2023/02/20 09:21:10;;;;;;;;;4.00;4.00;;;;;21.34;41.19;102748.09;5036268;28;45346;-73
2023/02/20 09:23:35;;;;;;;;;6.25;4.25;;;;;21.27;40.79;102746.94;5036317;28;45342;-73
2023/02/20 09:26:00;;;;;;;;;4.67;4.00;;;;;21.34;41.11;102752.59;5035738;28;45745;-73
2023/02/20 09:28:26;;;;;;;;;4.25;4.25;;;;;21.33;40.73;102759.69;5034716;28;45357;-73
2023/02/20 09:30:53;;;;;;;;;5.00;5.00;;;;;21.32;40.79;102754.50;5036091;28;45361;-73
2023/02/20 09:33:19;;;;;;;;;6.50;4.50;;;;;21.32;40.95;102755.34;5035920;28;45484;-71
2023/02/20 09:35:44;;;;;;;;;4.50;4.50;;;;;21.32;40.98;102754.50;5035600;28;45910;-73
2023/02/20 09:38:10;;;;;;;;;4.75;4.75;;;;;21.31;40.59;102753.69;5035818;28;45323;-73
2023/02/20 09:40:35;;;;;;;;;5.25;5.25;;;;;21.32;41.03;102750.06;5035675;28;45380;-72
2023/02/20 09:43:16;;;;;;;;;5.00;4.00;;;;;21.32;41.02;102754.50;5036203;28;45327;-72
2023/02/20 09:46:05;;;;;;;;;5.75;5.25;;;;;21.31;40.59;102742.25;5035018;28;46262;-72
2023/02/20 09:49:08;;;;;;;;;5.25;5.00;;;;;21.32;40.86;102749.22;5020685;28;45381;-72
2023/02/20 09:51:38;;;;;;;;;1.75;1.75;;;;;21.28;40.61;102748.63;5035886;28;45512;-72
2023/02/20 09:54:12;;;;;;;;;4.33;4.33;;;;;21.33;40.88;102756.19;5035677;28;45410;-72
2023/02/20 09:56:41;;;;;;;;;3.00;2.33;;;;;21.28;40.54;102746.00;5035087;28;47341;-72
2023/02/20 09:59:14;;;;;;;;;5.75;3.75;;;;;21.32;40.80;102751.84;5035436;28;45427;-72
2023/02/20 10:01:52;;;;;;;;;7.33;5.33;;;;;21.33;40.80;102754.38;5035377;28;45609;-72
2023/02/20 10:04:37;;;;;;;;;5.25;5.25;;;;;21.30;40.41;102754.63;5035472;28;45372;-72
2023/02/20 10:07:24;;;;;;;;;4.00;4.00;;;;;21.33;40.87;102761.50;5017493;28;47184;-72
2023/02/20 10:09:50;;;;;;;;;4.00;4.00;;;;;21.28;40.62;102753.94;5035098;28;45487;-72
2023/02/20 10:12:30;;;;;;;;;5.67;5.67;;;;;21.33;40.91;102758.84;5035411;28;45443;-73
2023/02/20 10:15:14;;;;;;;;;5.50;5.50;;;;;21.33;40.81;102764.97;5037372;28;45490;-72
2023/02/20 10:18:17;;;;;;;;;9.25;5.00;;;;;21.34;40.69;102760.53;5038813;28;46317;-72
2023/02/20 10:21:10;;;;;;;;;6.25;6.00;;;;;21.33;40.81;102762.34;4938434;28;45309;-72
2023/02/20 10:23:50;;;;;;;;;6.00;6.00;;;;;21.33;40.52;102759.69;4938523;28;45388;-72
2023/02/20 10:26:42;;;;;;;;;6.00;6.00;;;;;21.26;40.56;102745.28;4938238;28;45361;-72
2023/02/20 10:29:26;;;;;;;;;6.67;6.00;;;;;21.31;40.99;102743.09;4938293;28;45347;-72
2023/02/20 10:32:07;;;;;;;;;7.50;7.50;;;;;21.29;40.36;102743.22;4937973;28;45545;-72
2023/02/20 10:34:52;;;;;;;;;6.00;6.00;;;;;21.22;40.95;102733.25;4938032;28;45525;-72
2023/02/20 10:37:22;;;;;;;;;5.00;5.00;;;;;21.23;40.58;102727.84;4938391;28;45342;-72
2023/02/20 10:39:57;;;;;;;;;9.00;6.00;;;;;21.32;40.53;102744.75;4937862;28;45418;-72
2023/02/20 10:42:37;;;;;;;;;8.00;8.00;;;;;21.31;40.85;102737.81;4938012;28;45278;-72
2023/02/20 10:45:29;;;;;;;;;8.25;6.00;;;;;21.32;40.64;102738.63;4938091;28;45472;-72
2023/02/20 10:48:05;;;;;;;;;7.00;6.50;;;;;21.30;40.72;102733.47;4938136;28;45375;-72
2023/02/20 10:50:48;;;;;;;;;7.25;7.25;;;;;21.30;40.52;102738.75;4943353;28;46969;-72
2023/02/20 10:53:32;;;;;;;;;7.00;5.75;;;;;21.30;40.45;102736.09;4998134;28;45306;-72
2023/02/20 10:56:33;;;;;;;;;9.50;7.75;;;;;21.29;40.45;102740.56;4998493;28;45242;-72
2023/02/20 10:59:07;;;;;;;;;6.25;5.50;;;;;21.29;40.73;102729.97;4956837;28;45356;-72
2023/02/20 11:01:34;;;;;;;;;9.50;6.75;;;;;21.29;40.74;102735.25;4947457;28;47184;-72
2023/02/20 11:04:05;;;;;;;;;9.50;8.00;;;;;21.20;40.55;102722.81;4937794;28;45380;-72
2023/02/20 11:06:39;;;;;;;;;7.75;7.75;;;;;21.31;40.75;102744.91;4937927;28;45402;-72
2023/02/20 11:09:04;;;;;;;;;9.00;8.25;;;;;21.29;40.76;102731.78;4921422;28;45526;-72
2023/02/20 11:11:34;;;;;;;;;7.00;7.00;;;;;21.29;40.73;102737.06;4937664;28;46162;-72
2023/02/20 11:14:08;;;;;;;;;7.50;6.50;;;;;21.31;40.33;102736.94;4937592;28;45463;-72
2023/02/20 11:16:40;;;;;;;;;8.00;7.50;;;;;21.31;40.37;102731.66;4937723;28;45417;-72
2023/02/20 11:19:11;;;;;;;;;7.50;7.00;;;;;21.31;40.44;102740.44;4937751;28;45336;-72
2023/02/20 11:21:40;;;;;;;;;8.75;7.00;;;;;21.31;40.46;102736.94;4937327;28;47132;-72
2023/02/20 11:24:27;;;;;;;;;6.00;5.00;;;;;21.31;40.72;102732.50;4937294;28;45498;-72
2023/02/20 11:27:04;;;;;;;;;10.00;6.25;;;;;21.30;40.36;102730.81;4937178;28;45522;-72
2023/02/20 11:29:39;;;;;;;;;9.00;7.25;;;;;21.32;40.35;102731.50;4937575;28;45430;-72
2023/02/20 11:32:26;;;;;;;;;7.75;7.75;;;;;21.32;40.27;102722.72;4937434;28;46481;-72
2023/02/20 11:35:10;;;;;;;;;9.25;9.25;;;;;21.33;40.25;102721.78;4979038;28;45371;-72
2023/02/20 11:37:36;;;;;;;;;12.00;10.00;;;;;21.33;40.25;102717.31;5016956;28;45478;-72
2023/02/20 11:40:01;;;;;;;;;8.75;8.75;;;;;21.34;40.17;102718.16;5017897;28;45367;-72
2023/02/20 11:42:33;;;;;;;;;10.75;10.00;;;;;21.34;39.95;102708.38;5017680;28;46292;-72
2023/02/20 11:45:21;;;;;;;;;7.25;7.00;;;;;21.35;40.23;102703.94;5017784;28;45452;-73
2023/02/20 11:48:04;;;;;;;;;11.00;8.75;;;;;21.35;40.51;102690.69;5017860;28;45363;-72
2023/02/20 11:50:38;;;;;;;;;6.00;6.00;;;;;21.35;40.43;102688.06;5017713;28;45426;-72
2023/02/20 11:53:06;;;;;;;;;7.50;7.25;;;;;21.30;40.37;102677.88;5017061;28;46228;-72